sensor_id;sensor_type;location;lat;lon;timestamp;pressure;altitude;pressure_sealevel;temperature;humidity
76732;BME280;65656;51.130;13.658;2024-02-15T00:01:24;99497.06;;;7.69;100.00
76732;BME280;65656;51.130;13.658;2024-02-15T00:05:26;99491.16;;;7.72;100.00
76732;BME280;65656;51.130;13.658;2024-02-15T00:09:28;99490.41;;;7.65;100.00
76732;BME280;65656;51.130;13.658;2024-02-15T00:13:31;99491.91;;;7.61;100.00
76732;BME280;65656;51.130;13.658;2024-02-15T00:17:33;99486.06;;;7.76;100.00
76732;BME280;65656;51.130;13.658;2024-02-15T00:21:35;99482.97;;;7.72;100.00
76732;BME280;65656;51.130;13.658;2024-02-15T00:25:37;99481.44;;;7.76;100.00
76732;BME280;65656;51.130;13.658;2024-02-15T00:29:40;99483.84;;;7.85;100.00
76732;BME280;65656;51.130;13.658;2024-02-15T00:33:42;99481.75;;;7.87;100.00
76732;BME280;65656;51.130;13.658;2024-02-15T00:37:44;99478.38;;;7.85;100.00
76732;BME280;65656;51.130;13.658;2024-02-15T00:41:46;99477.13;;;7.87;100.00
76732;BME280;65656;51.130;13.658;2024-02-15T00:45:49;99480.06;;;7.86;100.00
76732;BME280;65656;51.130;13.658;2024-02-15T00:49:51;99474.47;;;7.80;100.00
76732;BME280;65656;51.130;13.658;2024-02-15T00:53:53;99463.91;;;7.84;100.00
76732;BME280;65656;51.130;13.658;2024-02-15T00:57:55;99465.56;;;7.85;100.00
76732;BME280;65656;51.130;13.658;2024-02-15T01:01:57;99469.25;;;7.79;100.00
76732;BME280;65656;51.130;13.658;2024-02-15T01:05:59;99474.47;;;7.80;100.00
76732;BME280;65656;51.130;13.658;2024-02-15T01:10:01;99477.66;;;7.77;100.00
76732;BME280;65656;51.130;13.658;2024-02-15T01:14:02;99460.78;;;7.69;100.00
76732;BME280;65656;51.130;13.658;2024-02-15T01:18:05;99474.78;;;7.72;100.00
76732;BME280;65656;51.130;13.658;2024-02-15T01:22:07;99477.78;;;7.82;100.00
76732;BME280;65656;51.130;13.658;2024-02-15T01:26:09;99465.81;;;7.83;100.00
76732;BME280;65656;51.130;13.658;2024-02-15T01:30:11;99472.00;;;7.91;100.00
76732;BME280;65656;51.130;13.658;2024-02-15T01:34:14;99464.41;;;7.93;100.00
76732;BME280;65656;51.130;13.658;2024-02-15T01:38:16;99464.41;;;7.93;100.00
76732;BME280;65656;51.130;13.658;2024-02-15T01:42:18;99470.19;;;8.03;100.00
76732;BME280;65656;51.130;13.658;2024-02-15T01:46:20;99471.00;;;8.03;100.00
76732;BME280;65656;51.130;13.658;2024-02-15T01:50:24;99467.84;;;8.18;100.00
76732;BME280;65656;51.130;13.658;2024-02-15T01:54:27;99455.97;;;8.24;100.00
76732;BME280;65656;51.130;13.658;2024-02-15T01:58:29;99455.97;;;8.24;100.00
76732;BME280;65656;51.130;13.658;2024-02-15T02:02:31;99462.38;;;8.18;100.00
76732;BME280;65656;51.130;13.658;2024-02-15T02:06:37;99455.22;;;8.35;100.00
76732;BME280;65656;51.130;13.658;2024-02-15T02:10:39;99453.38;;;8.29;100.00
76732;BME280;65656;51.130;13.658;2024-02-15T02:14:42;99438.41;;;8.20;100.00
76732;BME280;65656;51.130;13.658;2024-02-15T02:18:43;99446.38;;;8.22;100.00
76732;BME280;65656;51.130;13.658;2024-02-15T02:22:50;99457.94;;;8.35;100.00
76732;BME280;65656;51.130;13.658;2024-02-15T02:26:55;99452.06;;;8.32;100.00
76732;BME280;65656;51.130;13.658;2024-02-15T02:30:57;99449.19;;;8.57;100.00
76732;BME280;65656;51.130;13.658;2024-02-15T02:34:58;99450.22;;;8.44;100.00
76732;BME280;65656;51.130;13.658;2024-02-15T02:39:00;99450.59;;;8.71;100.00
76732;BME280;65656;51.130;13.658;2024-02-15T02:43:04;99452.97;;;8.79;100.00
76732;BME280;65656;51.130;13.658;2024-02-15T02:47:06;99441.38;;;8.72;100.00
76732;BME280;65656;51.130;13.658;2024-02-15T02:51:07;99449.91;;;8.87;100.00
76732;BME280;65656;51.130;13.658;2024-02-15T02:55:09;99439.66;;;8.94;100.00
76732;BME280;65656;51.130;13.658;2024-02-15T02:59:12;99435.53;;;9.04;100.00
76732;BME280;65656;51.130;13.658;2024-02-15T03:03:14;99441.06;;;9.09;100.00
76732;BME280;65656;51.130;13.658;2024-02-15T03:07:16;99444.19;;;9.01;100.00
76732;BME280;65656;51.130;13.658;2024-02-15T03:11:17;99439.53;;;9.01;100.00
76732;BME280;65656;51.130;13.658;2024-02-15T03:15:20;99436.72;;;8.84;100.00
76732;BME280;65656;51.130;13.658;2024-02-15T03:19:22;99441.09;;;8.85;100.00
76732;BME280;65656;51.130;13.658;2024-02-15T03:23:23;99436.69;;;9.19;100.00
76732;BME280;65656;51.130;13.658;2024-02-15T03:27:25;99431.81;;;9.10;100.00
76732;BME280;65656;51.130;13.658;2024-02-15T03:31:28;99436.22;;;9.11;100.00
76732;BME280;65656;51.130;13.658;2024-02-15T03:35:30;99427.69;;;8.96;100.00
76732;BME280;65656;51.130;13.658;2024-02-15T03:39:32;99430.63;;;9.06;100.00
76732;BME280;65656;51.130;13.658;2024-02-15T03:43:34;99441.31;;;9.19;100.00
76732;BME280;65656;51.130;13.658;2024-02-15T03:47:37;99433.13;;;9.07;100.00
76732;BME280;65656;51.130;13.658;2024-02-15T03:51:39;99440.84;;;8.99;100.00
76732;BME280;65656;51.130;13.658;2024-02-15T03:55:41;99437.53;;;8.97;100.00
76732;BME280;65656;51.130;13.658;2024-02-15T03:59:42;99432.06;;;8.85;100.00
76732;BME280;65656;51.130;13.658;2024-02-15T04:03:45;99435.63;;;8.85;100.00
76732;BME280;65656;51.130;13.658;2024-02-15T04:07:47;99441.09;;;8.85;100.00
76732;BME280;65656;51.130;13.658;2024-02-15T04:11:49;99447.19;;;8.87;100.00
76732;BME280;65656;51.130;13.658;2024-02-15T04:15:50;99453.94;;;8.97;100.00
76732;BME280;65656;51.130;13.658;2024-02-15T04:19:53;99448.09;;;8.93;100.00
76732;BME280;65656;51.130;13.658;2024-02-15T04:23:55;99453.69;;;8.86;100.00
76732;BME280;65656;51.130;13.658;2024-02-15T04:27:56;99445.13;;;8.94;100.00
76732;BME280;65656;51.130;13.658;2024-02-15T04:31:58;99444.44;;;8.87;100.00
76732;BME280;65656;51.130;13.658;2024-02-15T04:36:01;99436.84;;;8.89;100.00
76732;BME280;65656;51.130;13.658;2024-02-15T04:40:03;99441.72;;;8.87;100.00
76732;BME280;65656;51.130;13.658;2024-02-15T04:44:04;99447.75;;;8.89;100.00
76732;BME280;65656;51.130;13.658;2024-02-15T04:48:06;99446.69;;;8.90;100.00
76732;BME280;65656;51.130;13.658;2024-02-15T04:52:09;99442.72;;;9.10;100.00
76732;BME280;65656;51.130;13.658;2024-02-15T04:56:11;99455.56;;;9.21;100.00
76732;BME280;65656;51.130;13.658;2024-02-15T05:00:13;99454.63;;;9.27;100.00
76732;BME280;65656;51.130;13.658;2024-02-15T05:04:15;99456.28;;;9.28;100.00
76732;BME280;65656;51.130;13.658;2024-02-15T05:08:19;99453.78;;;9.27;100.00
76732;BME280;65656;51.130;13.658;2024-02-15T05:12:23;99460.78;;;9.34;100.00
76732;BME280;65656;51.130;13.658;2024-02-15T05:16:25;99465.56;;;9.27;100.00
76732;BME280;65656;51.130;13.658;2024-02-15T05:20:26;99469.34;;;9.26;100.00
76732;BME280;65656;51.130;13.658;2024-02-15T05:24:29;99470.72;;;9.40;100.00
76732;BME280;65656;51.130;13.658;2024-02-15T05:28:32;99461.44;;;9.41;100.00
76732;BME280;65656;51.130;13.658;2024-02-15T05:32:33;99467.41;;;9.50;100.00
76732;BME280;65656;51.130;13.658;2024-02-15T05:36:35;99464.69;;;9.38;100.00
76732;BME280;65656;51.130;13.658;2024-02-15T05:40:39;99476.31;;;9.34;100.00
76732;BME280;65656;51.130;13.658;2024-02-15T05:44:40;99473.00;;;9.32;100.00
76732;BME280;65656;51.130;13.658;2024-02-15T05:48:42;99472.69;;;9.28;100.00
76732;BME280;65656;51.130;13.658;2024-02-15T05:52:44;99476.03;;;9.07;100.00
76732;BME280;65656;51.130;13.658;2024-02-15T05:56:47;99486.00;;;9.13;100.00
76732;BME280;65656;51.130;13.658;2024-02-15T06:00:48;99487.56;;;8.97;100.00
76732;BME280;65656;51.130;13.658;2024-02-15T06:04:50;99489.81;;;8.88;100.00
76732;BME280;65656;51.130;13.658;2024-02-15T06:08:51;99500.03;;;8.81;100.00
76732;BME280;65656;51.130;13.658;2024-02-15T06:12:54;99506.09;;;8.83;100.00
76732;BME280;65656;51.130;13.658;2024-02-15T06:16:57;99516.16;;;8.71;100.00
76732;BME280;65656;51.130;13.658;2024-02-15T06:20:59;99516.41;;;8.58;100.00
76732;BME280;65656;51.130;13.658;2024-02-15T06:25:01;99517.56;;;8.62;100.00
76732;BME280;65656;51.130;13.658;2024-02-15T06:29:04;99520.06;;;8.63;100.00
76732;BME280;65656;51.130;13.658;2024-02-15T06:33:05;99533.75;;;8.75;100.00
76732;BME280;65656;51.130;13.658;2024-02-15T06:37:07;99543.13;;;8.68;100.00
76732;BME280;65656;51.130;13.658;2024-02-15T06:41:09;99530.78;;;8.65;100.00
76732;BME280;65656;51.130;13.658;2024-02-15T06:45:12;99523.50;;;8.59;100.00
76732;BME280;65656;51.130;13.658;2024-02-15T06:49:13;99535.63;;;8.63;100.00
76732;BME280;65656;51.130;13.658;2024-02-15T06:53:15;99532.53;;;8.71;100.00
76732;BME280;65656;51.130;13.658;2024-02-15T06:57:19;99532.09;;;8.74;100.00
76732;BME280;65656;51.130;13.658;2024-02-15T07:01:24;99524.47;;;8.76;100.00
76732;BME280;65656;51.130;13.658;2024-02-15T07:05:26;99518.91;;;8.83;100.00
76732;BME280;65656;51.130;13.658;2024-02-15T07:09:27;99520.47;;;8.90;100.00
76732;BME280;65656;51.130;13.658;2024-02-15T07:13:29;99519.25;;;8.86;100.00
76732;BME280;65656;51.130;13.658;2024-02-15T07:17:32;99520.81;;;8.94;100.00
76732;BME280;65656;51.130;13.658;2024-02-15T07:21:34;99522.00;;;8.98;100.00
76732;BME280;65656;51.130;13.658;2024-02-15T07:25:36;99518.22;;;8.99;100.00
76732;BME280;65656;51.130;13.658;2024-02-15T07:29:37;99527.22;;;9.00;100.00
76732;BME280;65656;51.130;13.658;2024-02-15T07:33:40;99525.22;;;9.07;100.00
76732;BME280;65656;51.130;13.658;2024-02-15T07:37:51;99531.16;;;9.04;100.00
76732;BME280;65656;51.130;13.658;2024-02-15T07:41:53;99541.13;;;9.10;100.00
76732;BME280;65656;51.130;13.658;2024-02-15T07:45:55;99540.91;;;9.23;100.00
76732;BME280;65656;51.130;13.658;2024-02-15T07:49:58;99538.63;;;9.32;100.00
76732;BME280;65656;51.130;13.658;2024-02-15T07:53:59;99536.72;;;9.44;100.00
76732;BME280;65656;51.130;13.658;2024-02-15T07:58:01;99526.63;;;9.44;100.00
76732;BME280;65656;51.130;13.658;2024-02-15T08:02:03;99523.03;;;9.56;100.00
76732;BME280;65656;51.130;13.658;2024-02-15T08:06:06;99514.81;;;9.67;100.00
76732;BME280;65656;51.130;13.658;2024-02-15T08:10:08;99515.38;;;9.81;100.00
76732;BME280;65656;51.130;13.658;2024-02-15T08:14:10;99507.03;;;9.76;100.00
76732;BME280;65656;51.130;13.658;2024-02-15T08:18:14;99501.06;;;9.79;100.00
76732;BME280;65656;51.130;13.658;2024-02-15T08:22:17;99501.91;;;9.80;100.00
76732;BME280;65656;51.130;13.658;2024-02-15T08:26:19;99489.59;;;9.94;100.00
76732;BME280;65656;51.130;13.658;2024-02-15T08:30:20;99486.69;;;10.12;100.00
76732;BME280;65656;51.130;13.658;2024-02-15T08:34:25;99494.44;;;10.32;100.00
76732;BME280;65656;51.130;13.658;2024-02-15T08:38:29;99503.91;;;10.41;100.00
76732;BME280;65656;51.130;13.658;2024-02-15T08:42:31;99504.44;;;10.38;100.00
76732;BME280;65656;51.130;13.658;2024-02-15T08:46:33;99506.59;;;10.36;100.00
76732;BME280;65656;51.130;13.658;2024-02-15T08:50:34;99517.06;;;10.56;100.00
76732;BME280;65656;51.130;13.658;2024-02-15T08:54:38;99507.75;;;10.74;100.00
76732;BME280;65656;51.130;13.658;2024-02-15T08:58:39;99501.13;;;10.86;100.00
76732;BME280;65656;51.130;13.658;2024-02-15T09:02:41;99513.44;;;10.84;100.00
76732;BME280;65656;51.130;13.658;2024-02-15T09:06:42;99505.50;;;11.04;100.00
76732;BME280;65656;51.130;13.658;2024-02-15T09:10:46;99510.72;;;11.23;100.00
76732;BME280;65656;51.130;13.658;2024-02-15T09:14:47;99509.03;;;11.38;100.00
76732;BME280;65656;51.130;13.658;2024-02-15T09:18:49;99513.44;;;11.39;100.00
76732;BME280;65656;51.130;13.658;2024-02-15T09:22:51;99512.81;;;11.54;100.00
76732;BME280;65656;51.130;13.658;2024-02-15T09:26:54;99510.75;;;11.66;100.00
76732;BME280;65656;51.130;13.658;2024-02-15T09:30:56;99508.22;;;11.82;100.00
76732;BME280;65656;51.130;13.658;2024-02-15T09:34:57;99513.03;;;11.91;100.00
76732;BME280;65656;51.130;13.658;2024-02-15T09:38:59;99512.81;;;11.98;100.00
76732;BME280;65656;51.130;13.658;2024-02-15T09:43:03;99519.47;;;12.02;100.00
76732;BME280;65656;51.130;13.658;2024-02-15T09:47:05;99528.69;;;11.91;100.00
76732;BME280;65656;51.130;13.658;2024-02-15T09:51:07;99532.59;;;11.78;100.00
76732;BME280;65656;51.130;13.658;2024-02-15T09:55:11;99526.91;;;11.63;100.00
76732;BME280;65656;51.130;13.658;2024-02-15T09:59:14;99528.75;;;11.57;100.00
76732;BME280;65656;51.130;13.658;2024-02-15T10:03:18;99522.81;;;11.43;100.00
76732;BME280;65656;51.130;13.658;2024-02-15T10:07:20;99524.78;;;11.48;100.00
76732;BME280;65656;51.130;13.658;2024-02-15T10:11:22;99519.31;;;11.48;100.00
76732;BME280;65656;51.130;13.658;2024-02-15T10:15:30;99525.31;;;11.67;100.00
76732;BME280;65656;51.130;13.658;2024-02-15T10:19:34;99512.44;;;11.67;100.00
76732;BME280;65656;51.130;13.658;2024-02-15T10:23:36;99521.72;;;11.83;100.00
76732;BME280;65656;51.130;13.658;2024-02-15T10:27:38;99529.03;;;11.78;100.00
76732;BME280;65656;51.130;13.658;2024-02-15T10:31:52;99524.56;;;11.71;100.00
76732;BME280;65656;51.130;13.658;2024-02-15T10:36:04;99524.03;;;11.75;100.00
76732;BME280;65656;51.130;13.658;2024-02-15T10:40:07;99520.41;;;11.69;100.00
76732;BME280;65656;51.130;13.658;2024-02-15T10:44:09;99517.72;;;11.74;100.00
76732;BME280;65656;51.130;13.658;2024-02-15T10:48:12;99514.69;;;11.92;100.00
76732;BME280;65656;51.130;13.658;2024-02-15T10:52:14;99516.03;;;11.90;100.00
76732;BME280;65656;51.130;13.658;2024-02-15T10:56:18;99508.41;;;11.75;100.00
76732;BME280;65656;51.130;13.658;2024-02-15T11:00:21;99496.91;;;11.78;100.00
76732;BME280;65656;51.130;13.658;2024-02-15T11:04:27;99499.06;;;11.93;100.00
76732;BME280;65656;51.130;13.658;2024-02-15T11:08:32;99500.72;;;11.94;100.00
76732;BME280;65656;51.130;13.658;2024-02-15T11:12:35;99503.78;;;12.24;100.00
76732;BME280;65656;51.130;13.658;2024-02-15T11:16:41;99491.09;;;12.45;100.00
76732;BME280;65656;51.130;13.658;2024-02-15T11:20:48;99495.72;;;12.45;100.00
76732;BME280;65656;51.130;13.658;2024-02-15T11:24:52;99494.56;;;12.68;100.00
76732;BME280;65656;51.130;13.658;2024-02-15T11:28:54;99486.88;;;13.02;100.00
76732;BME280;65656;51.130;13.658;2024-02-15T11:32:55;99480.50;;;13.33;100.00
76732;BME280;65656;51.130;13.658;2024-02-15T11:36:58;99479.16;;;13.46;100.00
76732;BME280;65656;51.130;13.658;2024-02-15T11:41:03;99470.84;;;13.31;100.00
76732;BME280;65656;51.130;13.658;2024-02-15T11:45:06;99469.47;;;13.33;100.00
76732;BME280;65656;51.130;13.658;2024-02-15T11:49:14;99466.78;;;13.38;100.00
76732;BME280;65656;51.130;13.658;2024-02-15T11:53:18;99470.53;;;13.27;100.00
76732;BME280;65656;51.130;13.658;2024-02-15T11:57:19;99469.06;;;13.15;100.00
76732;BME280;65656;51.130;13.658;2024-02-15T12:01:21;99464.78;;;12.92;100.00
76732;BME280;65656;51.130;13.658;2024-02-15T12:05:23;99467.00;;;12.95;100.00
76732;BME280;65656;51.130;13.658;2024-02-15T12:09:27;99457.00;;;12.83;100.00
76732;BME280;65656;51.130;13.658;2024-02-15T12:13:29;99462.06;;;12.97;100.00
76732;BME280;65656;51.130;13.658;2024-02-15T12:17:31;99453.84;;;13.02;100.00
76732;BME280;65656;51.130;13.658;2024-02-15T12:21:32;99453.53;;;12.93;100.00
76732;BME280;65656;51.130;13.658;2024-02-15T12:25:36;99460.56;;;13.16;100.00
76732;BME280;65656;51.130;13.658;2024-02-15T12:29:38;99455.88;;;13.17;100.00
76732;BME280;65656;51.130;13.658;2024-02-15T12:33:40;99446.56;;;13.23;100.00
76732;BME280;65656;51.130;13.658;2024-02-15T12:37:42;99451.88;;;13.34;100.00
76732;BME280;65656;51.130;13.658;2024-02-15T12:41:49;99458.25;;;13.03;100.00
76732;BME280;65656;51.130;13.658;2024-02-15T12:45:51;99452.53;;;13.09;100.00
76732;BME280;65656;51.130;13.658;2024-02-15T12:49:52;99443.97;;;13.01;100.00
76732;BME280;65656;51.130;13.658;2024-02-15T12:54:08;99449.38;;;12.91;100.00
76732;BME280;65656;51.130;13.658;2024-02-15T12:58:13;99442.88;;;13.07;100.00
76732;BME280;65656;51.130;13.658;2024-02-15T13:02:15;99433.69;;;13.28;100.00
76732;BME280;65656;51.130;13.658;2024-02-15T13:06:16;99435.94;;;13.42;100.00
76732;BME280;65656;51.130;13.658;2024-02-15T13:10:18;99435.09;;;13.36;100.00
76732;BME280;65656;51.130;13.658;2024-02-15T13:14:21;99437.09;;;13.51;100.00
76732;BME280;65656;51.130;13.658;2024-02-15T13:18:23;99424.44;;;13.60;100.00
76732;BME280;65656;51.130;13.658;2024-02-15T13:22:24;99416.84;;;13.87;100.00
76732;BME280;65656;51.130;13.658;2024-02-15T13:26:26;99430.88;;;13.91;100.00
76732;BME280;65656;51.130;13.658;2024-02-15T13:30:29;99437.81;;;14.09;100.00
76732;BME280;65656;51.130;13.658;2024-02-15T13:34:31;99435.09;;;14.34;100.00
76732;BME280;65656;51.130;13.658;2024-02-15T13:38:33;99437.84;;;14.19;100.00
76732;BME280;65656;51.130;13.658;2024-02-15T13:42:35;99429.03;;;14.17;100.00
76732;BME280;65656;51.130;13.658;2024-02-15T13:46:38;99430.66;;;14.13;100.00
76732;BME280;65656;51.130;13.658;2024-02-15T13:50:40;99430.13;;;14.21;100.00
76732;BME280;65656;51.130;13.658;2024-02-15T13:54:42;99429.09;;;14.47;100.00
76732;BME280;65656;51.130;13.658;2024-02-15T13:58:44;99423.25;;;14.54;100.00
76732;BME280;65656;51.130;13.658;2024-02-15T14:02:48;99407.78;;;14.38;100.00
76732;BME280;65656;51.130;13.658;2024-02-15T14:06:50;99411.41;;;14.33;100.00
76732;BME280;65656;51.130;13.658;2024-02-15T14:10:52;99407.50;;;14.14;100.00
76732;BME280;65656;51.130;13.658;2024-02-15T14:14:55;99399.22;;;13.88;100.00
76732;BME280;65656;51.130;13.658;2024-02-15T14:18:59;99400.28;;;13.82;100.00
76732;BME280;65656;51.130;13.658;2024-02-15T14:23:01;99409.72;;;14.12;100.00
76732;BME280;65656;51.130;13.658;2024-02-15T14:27:04;99413.53;;;13.90;100.00
76732;BME280;65656;51.130;13.658;2024-02-15T14:31:07;99415.72;;;13.83;100.00
76732;BME280;65656;51.130;13.658;2024-02-15T14:35:10;99405.78;;;13.72;100.00
76732;BME280;65656;51.130;13.658;2024-02-15T14:39:13;99405.44;;;13.48;100.00
76732;BME280;65656;51.130;13.658;2024-02-15T14:43:15;99401.28;;;13.46;100.00
76732;BME280;65656;51.130;13.658;2024-02-15T14:47:21;99404.03;;;13.41;100.00
76732;BME280;65656;51.130;13.658;2024-02-15T14:51:24;99391.88;;;13.36;100.00
76732;BME280;65656;51.130;13.658;2024-02-15T14:55:26;99400.13;;;13.31;100.00
76732;BME280;65656;51.130;13.658;2024-02-15T14:59:27;99399.34;;;13.41;100.00
76732;BME280;65656;51.130;13.658;2024-02-15T15:03:30;99390.19;;;13.30;100.00
76732;BME280;65656;51.130;13.658;2024-02-15T15:07:34;99389.66;;;13.28;100.00
76732;BME280;65656;51.130;13.658;2024-02-15T15:11:36;99385.28;;;13.32;100.00
76732;BME280;65656;51.130;13.658;2024-02-15T15:15:38;99388.00;;;13.27;100.00
76732;BME280;65656;51.130;13.658;2024-02-15T15:19:39;99378.88;;;13.22;100.00
76732;BME280;65656;51.130;13.658;2024-02-15T15:23:43;99387.72;;;13.24;100.00
76732;BME280;65656;51.130;13.658;2024-02-15T15:27:45;99393.47;;;13.22;100.00
76732;BME280;65656;51.130;13.658;2024-02-15T15:31:47;99379.13;;;13.15;100.00
76732;BME280;65656;51.130;13.658;2024-02-15T15:35:49;99379.03;;;13.00;100.00
76732;BME280;65656;51.130;13.658;2024-02-15T15:39:53;99379.00;;;12.95;100.00
76732;BME280;65656;51.130;13.658;2024-02-15T15:43:54;99373.97;;;12.81;100.00
76732;BME280;65656;51.130;13.658;2024-02-15T15:47:56;99368.41;;;12.71;100.00
76732;BME280;65656;51.130;13.658;2024-02-15T15:51:58;99365.03;;;12.59;100.00
76732;BME280;65656;51.130;13.658;2024-02-15T15:56:01;99371.00;;;12.46;100.00
76732;BME280;65656;51.130;13.658;2024-02-15T16:00:04;99363.75;;;12.35;100.00
76732;BME280;65656;51.130;13.658;2024-02-15T16:04:07;99368.25;;;12.14;100.00
76732;BME280;65656;51.130;13.658;2024-02-15T16:08:09;99380.47;;;11.96;100.00
76732;BME280;65656;51.130;13.658;2024-02-15T16:12:12;99360.19;;;11.75;100.00
76732;BME280;65656;51.130;13.658;2024-02-15T16:16:14;99372.31;;;11.52;100.00
76732;BME280;65656;51.130;13.658;2024-02-15T16:20:16;99369.31;;;11.32;100.00
76732;BME280;65656;51.130;13.658;2024-02-15T16:24:17;99377.66;;;11.20;100.00
76732;BME280;65656;51.130;13.658;2024-02-15T16:28:21;99379.47;;;11.09;100.00
76732;BME280;65656;51.130;13.658;2024-02-15T16:32:23;99384.28;;;11.02;100.00
76732;BME280;65656;51.130;13.658;2024-02-15T16:36:25;99370.19;;;10.94;100.00
76732;BME280;65656;51.130;13.658;2024-02-15T16:40:27;99374.22;;;10.86;100.00
76732;BME280;65656;51.130;13.658;2024-02-15T16:44:30;99377.13;;;10.79;100.00
76732;BME280;65656;51.130;13.658;2024-02-15T16:48:32;99380.88;;;10.73;100.00
76732;BME280;65656;51.130;13.658;2024-02-15T16:52:34;99380.00;;;10.68;100.00
76732;BME280;65656;51.130;13.658;2024-02-15T16:56:36;99381.06;;;10.67;100.00
76732;BME280;65656;51.130;13.658;2024-02-15T17:00:39;99374.41;;;10.63;100.00
76732;BME280;65656;51.130;13.658;2024-02-15T17:04:41;99371.13;;;10.60;100.00
76732;BME280;65656;51.130;13.658;2024-02-15T17:08:43;99370.59;;;10.64;100.00
76732;BME280;65656;51.130;13.658;2024-02-15T17:12:45;99355.97;;;10.58;100.00
76732;BME280;65656;51.130;13.658;2024-02-15T17:16:48;99366.50;;;10.44;100.00
76732;BME280;65656;51.130;13.658;2024-02-15T17:20:50;99365.31;;;10.40;100.00
76732;BME280;65656;51.130;13.658;2024-02-15T17:24:52;99379.78;;;10.36;100.00
76732;BME280;65656;51.130;13.658;2024-02-15T17:28:54;99392.69;;;10.40;100.00
76732;BME280;65656;51.130;13.658;2024-02-15T17:32:57;99387.88;;;10.47;100.00
76732;BME280;65656;51.130;13.658;2024-02-15T17:36:59;99387.22;;;10.40;100.00
76732;BME280;65656;51.130;13.658;2024-02-15T17:41:01;99394.47;;;10.29;100.00
76732;BME280;65656;51.130;13.658;2024-02-15T17:45:03;99385.31;;;10.24;100.00
76732;BME280;65656;51.130;13.658;2024-02-15T17:49:06;99391.19;;;10.16;100.00
76732;BME280;65656;51.130;13.658;2024-02-15T17:53:08;99389.53;;;10.15;100.00
76732;BME280;65656;51.130;13.658;2024-02-15T17:57:10;99385.72;;;10.16;100.00
76732;BME280;65656;51.130;13.658;2024-02-15T18:01:11;99385.19;;;10.19;100.00
76732;BME280;65656;51.130;13.658;2024-02-15T18:05:16;99384.06;;;10.15;100.00
76732;BME280;65656;51.130;13.658;2024-02-15T18:09:17;99379.16;;;10.17;100.00
76732;BME280;65656;51.130;13.658;2024-02-15T18:13:19;99382.19;;;10.03;100.00
76732;BME280;65656;51.130;13.658;2024-02-15T18:17:21;99364.53;;;9.94;100.00
76732;BME280;65656;51.130;13.658;2024-02-15T18:21:24;99372.06;;;9.87;100.00
76732;BME280;65656;51.130;13.658;2024-02-15T18:25:26;99369.84;;;9.84;100.00
76732;BME280;65656;51.130;13.658;2024-02-15T18:29:28;99374.53;;;9.72;100.00
76732;BME280;65656;51.130;13.658;2024-02-15T18:33:29;99370.88;;;9.66;100.00
76732;BME280;65656;51.130;13.658;2024-02-15T18:37:33;99378.16;;;9.61;100.00
76732;BME280;65656;51.130;13.658;2024-02-15T18:41:35;99378.06;;;9.56;100.00
76732;BME280;65656;51.130;13.658;2024-02-15T18:45:37;99375.31;;;9.56;100.00
76732;BME280;65656;51.130;13.658;2024-02-15T18:49:38;99366.94;;;9.45;100.00
76732;BME280;65656;51.130;13.658;2024-02-15T18:53:54;99361.84;;;9.37;100.00
76732;BME280;65656;51.130;13.658;2024-02-15T18:57:56;99360.66;;;9.33;100.00
76732;BME280;65656;51.130;13.658;2024-02-15T19:01:58;99350.47;;;9.29;100.00
76732;BME280;65656;51.130;13.658;2024-02-15T19:06:05;99351.41;;;9.34;100.00
76732;BME280;65656;51.130;13.658;2024-02-15T19:10:08;99352.13;;;9.30;100.00
76732;BME280;65656;51.130;13.658;2024-02-15T19:14:11;99355.50;;;9.20;100.00
76732;BME280;65656;51.130;13.658;2024-02-15T19:18:13;99347.19;;;9.15;100.00
76732;BME280;65656;51.130;13.658;2024-02-15T19:22:14;99341.59;;;9.10;100.00
76732;BME280;65656;51.130;13.658;2024-02-15T19:26:17;99346.03;;;9.11;100.00
76732;BME280;65656;51.130;13.658;2024-02-15T19:30:19;99342.81;;;9.02;100.00
76732;BME280;65656;51.130;13.658;2024-02-15T19:34:21;99344.63;;;8.97;100.00
76732;BME280;65656;51.130;13.658;2024-02-15T19:38:23;99353.91;;;8.96;100.00
76732;BME280;65656;51.130;13.658;2024-02-15T19:42:26;99342.97;;;8.96;100.00
76732;BME280;65656;51.130;13.658;2024-02-15T19:46:30;99344.50;;;8.91;100.00
76732;BME280;65656;51.130;13.658;2024-02-15T19:50:31;99351.19;;;8.96;100.00
76732;BME280;65656;51.130;13.658;2024-02-15T19:54:33;99349.03;;;8.86;100.00
76732;BME280;65656;51.130;13.658;2024-02-15T19:58:36;99357.72;;;8.83;100.00
76732;BME280;65656;51.130;13.658;2024-02-15T20:02:38;99359.25;;;8.79;100.00
76732;BME280;65656;51.130;13.658;2024-02-15T20:06:42;99360.09;;;8.79;100.00
76732;BME280;65656;51.130;13.658;2024-02-15T20:10:45;99361.16;;;8.78;100.00
76732;BME280;65656;51.130;13.658;2024-02-15T20:14:49;99366.03;;;8.76;100.00
76732;BME280;65656;51.130;13.658;2024-02-15T20:18:51;99361.44;;;8.65;100.00
76732;BME280;65656;51.130;13.658;2024-02-15T20:22:53;99356.44;;;8.62;100.00
76732;BME280;65656;51.130;13.658;2024-02-15T20:26:54;99362.75;;;8.51;100.00
76732;BME280;65656;51.130;13.658;2024-02-15T20:30:57;99357.75;;;8.48;100.00
76732;BME280;65656;51.130;13.658;2024-02-15T20:34:59;99352.28;;;8.48;100.00
76732;BME280;65656;51.130;13.658;2024-02-15T20:39:00;99358.22;;;8.45;100.00
76732;BME280;65656;51.130;13.658;2024-02-15T20:43:03;99358.59;;;8.48;100.00
76732;BME280;65656;51.130;13.658;2024-02-15T20:47:06;99348.97;;;8.46;100.00
76732;BME280;65656;51.130;13.658;2024-02-15T20:51:08;99347.31;;;8.45;100.00
76732;BME280;65656;51.130;13.658;2024-02-15T20:55:09;99349.47;;;8.43;100.00
76732;BME280;65656;51.130;13.658;2024-02-15T20:59:11;99344.44;;;8.40;100.00